createdAt,value
2019-03-29T00:02:09.265Z,99.90
2019-03-29T00:04:37.714Z,99.90
2019-03-29T00:07:06.120Z,99.90
2019-03-29T00:09:34.588Z,99.90
2019-03-29T00:12:02.997Z,99.90
2019-03-29T00:14:31.398Z,99.90
2019-03-29T00:17:00.082Z,99.90
2019-03-29T00:19:28.586Z,99.90
2019-03-29T00:21:57.031Z,99.90
2019-03-29T00:24:25.454Z,99.90
2019-03-29T00:26:53.854Z,99.90
2019-03-29T00:29:22.351Z,99.90
2019-03-29T00:31:50.777Z,99.90
2019-03-29T00:34:19.207Z,99.90
2019-03-29T00:36:47.635Z,99.90
2019-03-29T00:39:16.055Z,99.90
2019-03-29T00:41:46.381Z,99.90
2019-03-29T00:44:14.795Z,99.90
2019-03-29T00:46:43.220Z,99.90
2019-03-29T00:49:11.617Z,99.90
2019-03-29T00:51:40.028Z,99.90
2019-03-29T00:54:08.451Z,99.90
2019-03-29T00:56:36.918Z,99.90
2019-03-29T00:59:05.429Z,99.90
2019-03-29T01:01:33.863Z,99.90
2019-03-29T01:04:02.978Z,99.90
2019-03-29T01:06:31.589Z,99.90
2019-03-29T01:08:59.997Z,99.90
2019-03-29T01:11:28.419Z,99.90
2019-03-29T01:13:56.838Z,99.90
2019-03-29T01:16:25.266Z,99.90
2019-03-29T01:18:53.678Z,99.90
2019-03-29T01:21:22.109Z,99.90
2019-03-29T01:23:50.526Z,99.90
2019-03-29T01:26:18.954Z,99.90
2019-03-29T01:28:47.381Z,99.90
2019-03-29T01:31:15.793Z,99.90
2019-03-29T01:33:44.220Z,99.90
2019-03-29T01:36:12.676Z,99.90
2019-03-29T01:38:41.089Z,99.90
2019-03-29T01:41:09.562Z,99.90
2019-03-29T01:43:37.978Z,99.90
2019-03-29T01:46:06.402Z,99.90
2019-03-29T01:48:34.818Z,99.90
2019-03-29T01:51:03.336Z,99.90
2019-03-29T01:53:31.847Z,99.90
2019-03-29T01:56:00.277Z,99.90
2019-03-29T01:58:28.685Z,99.90
2019-03-29T02:00:57.114Z,99.90
2019-03-29T02:03:25.525Z,99.90
2019-03-29T02:05:54.128Z,99.90
2019-03-29T02:08:35.247Z,99.90
2019-03-29T02:10:52.755Z,99.90
2019-03-29T02:13:21.182Z,99.90
2019-03-29T02:15:49.772Z,99.90
2019-03-29T02:18:18.176Z,99.90
2019-03-29T02:20:46.623Z,99.90
2019-03-29T02:23:15.024Z,99.90
2019-03-29T02:25:43.465Z,99.90
2019-03-29T02:28:11.883Z,99.90
2019-03-29T02:30:40.327Z,99.90
2019-03-29T02:33:08.775Z,99.90
2019-03-29T02:35:38.494Z,99.90
2019-03-29T02:38:07.342Z,99.90
2019-03-29T02:40:35.800Z,99.90
2019-03-29T02:43:04.229Z,99.90
2019-03-29T02:45:32.713Z,99.90
2019-03-29T02:48:01.150Z,99.90
2019-03-29T02:50:29.635Z,99.90
2019-03-29T02:52:58.183Z,99.90
2019-03-29T02:55:26.649Z,99.90
2019-03-29T02:57:55.124Z,99.90
2019-03-29T03:00:23.534Z,99.90
2019-03-29T03:02:52.039Z,99.90
2019-03-29T03:05:20.447Z,99.90
2019-03-29T03:07:48.872Z,99.90
2019-03-29T03:10:17.581Z,99.90
2019-03-29T03:12:46.000Z,99.90
2019-03-29T03:15:14.869Z,99.90
2019-03-29T03:17:43.315Z,99.90
2019-03-29T03:20:15.433Z,99.90
2019-03-29T03:22:44.007Z,99.90
2019-03-29T03:25:12.495Z,99.90
2019-03-29T03:27:40.937Z,99.90
2019-03-29T03:30:11.573Z,99.90
2019-03-29T03:32:40.462Z,99.90
2019-03-29T03:35:28.299Z,99.90
2019-03-29T03:37:57.016Z,99.90
2019-03-29T03:40:25.440Z,99.90
2019-03-29T03:42:53.852Z,99.90
2019-03-29T03:45:25.864Z,99.90
2019-03-29T03:47:54.311Z,99.90
2019-03-29T03:50:38.034Z,99.90
2019-03-29T03:53:06.535Z,99.90
2019-03-29T03:55:37.728Z,99.90
2019-03-29T04:00:56.765Z,99.90
2019-03-29T04:03:26.147Z,99.90
2019-03-29T04:05:54.664Z,99.90
2019-03-29T04:08:23.087Z,99.90
2019-03-29T04:10:51.528Z,99.90
2019-03-29T04:13:19.936Z,99.90
2019-03-29T04:15:48.369Z,99.90
2019-03-29T04:18:16.972Z,99.90
2019-03-29T04:20:45.506Z,99.90
2019-03-29T04:23:13.934Z,99.90
2019-03-29T04:25:42.355Z,99.90
2019-03-29T04:28:10.792Z,99.90
2019-03-29T04:30:39.244Z,99.90
2019-03-29T04:33:11.066Z,99.90
2019-03-29T04:35:38.605Z,99.90
2019-03-29T04:38:07.065Z,99.90
2019-03-29T04:40:35.537Z,99.90
2019-03-29T04:43:04.064Z,99.90
2019-03-29T04:45:32.506Z,99.90
2019-03-29T04:48:00.954Z,99.90
2019-03-29T04:50:29.425Z,99.90
2019-03-29T04:52:57.882Z,99.90
2019-03-29T04:55:26.409Z,99.90
2019-03-29T04:57:54.857Z,99.90
2019-03-29T05:00:23.287Z,99.90
2019-03-29T05:02:51.715Z,99.90
2019-03-29T05:05:20.142Z,99.90
2019-03-29T05:07:48.582Z,99.90
2019-03-29T05:10:21.589Z,99.90
2019-03-29T05:12:47.264Z,99.90
2019-03-29T05:15:15.681Z,99.90
2019-03-29T05:17:44.208Z,99.90
2019-03-29T05:20:12.736Z,99.90
2019-03-29T05:22:41.252Z,99.90
2019-03-29T05:25:09.733Z,99.90
2019-03-29T05:27:39.126Z,99.90
2019-03-29T05:30:08.136Z,99.90
2019-03-29T05:32:36.561Z,99.90
2019-03-29T05:35:06.548Z,99.90
2019-03-29T05:37:34.969Z,99.90
2019-03-29T05:40:04.156Z,99.90
2019-03-29T05:42:32.609Z,99.90
2019-03-29T05:45:01.156Z,99.90
2019-03-29T05:47:30.051Z,99.90
2019-03-29T05:49:58.535Z,99.90
2019-03-29T05:52:26.980Z,99.90
2019-03-29T05:54:55.409Z,99.90
2019-03-29T05:57:23.927Z,99.90
2019-03-29T05:59:52.370Z,99.90
2019-03-29T06:02:20.828Z,99.90
2019-03-29T06:04:49.263Z,99.90
2019-03-29T06:07:17.756Z,99.90
2019-03-29T06:09:46.177Z,99.90
2019-03-29T06:12:14.651Z,99.90
2019-03-29T06:14:43.098Z,99.90
2019-03-29T06:17:11.537Z,99.90
2019-03-29T06:19:39.979Z,99.90
2019-03-29T06:22:08.411Z,99.90
2019-03-29T06:24:36.829Z,99.90
2019-03-29T06:27:15.259Z,99.90
2019-03-29T06:29:43.702Z,99.90
2019-03-29T06:32:12.148Z,99.90
2019-03-29T06:34:53.735Z,99.90
2019-03-29T06:37:43.548Z,99.90
2019-03-29T06:40:16.262Z,99.90
2019-03-29T06:42:45.683Z,99.90
2019-03-29T06:45:16.227Z,99.90
2019-03-29T06:48:21.425Z,99.90
2019-03-29T06:50:49.889Z,99.90
2019-03-29T06:53:19.446Z,99.90
2019-03-29T06:55:48.773Z,99.90
2019-03-29T06:58:17.279Z,99.90
2019-03-29T07:00:46.901Z,99.90
2019-03-29T07:03:51.095Z,99.90
2019-03-29T07:06:19.863Z,99.90
2019-03-29T07:08:48.303Z,99.90
2019-03-29T07:11:39.710Z,99.90
2019-03-29T07:14:07.896Z,99.90
2019-03-29T07:16:36.575Z,99.90
2019-03-29T07:19:05.291Z,99.90
2019-03-29T07:21:33.845Z,99.90
2019-03-29T07:24:02.339Z,99.90
2019-03-29T07:26:30.750Z,99.90
2019-03-29T07:28:59.411Z,99.90
2019-03-29T07:31:27.827Z,99.90
2019-03-29T07:33:56.253Z,99.90
2019-03-29T07:36:24.751Z,99.90
2019-03-29T07:38:53.206Z,99.90
2019-03-29T07:41:31.577Z,99.90
2019-03-29T07:43:51.820Z,99.90
2019-03-29T07:46:26.056Z,99.90
2019-03-29T07:48:54.555Z,99.90
2019-03-29T07:51:22.975Z,99.90
2019-03-29T07:53:51.416Z,99.90
2019-03-29T07:56:19.837Z,99.90
2019-03-29T07:58:48.304Z,99.90
2019-03-29T08:01:16.718Z,99.90
2019-03-29T08:03:45.177Z,99.90
2019-03-29T08:06:13.612Z,99.90
2019-03-29T08:08:42.062Z,99.90
2019-03-29T08:11:10.481Z,99.90
2019-03-29T08:13:38.926Z,99.90
2019-03-29T08:16:07.375Z,99.90
2019-03-29T08:18:35.804Z,99.90
2019-03-29T08:21:07.135Z,99.90
2019-03-29T08:23:35.589Z,99.90
2019-03-29T08:26:04.003Z,99.90
2019-03-29T08:28:32.453Z,99.90
2019-03-29T08:31:00.886Z,99.90
2019-03-29T08:33:29.325Z,99.90
2019-03-29T08:35:57.740Z,99.90
2019-03-29T08:38:26.199Z,99.90
2019-03-29T08:40:54.681Z,99.90
2019-03-29T08:43:23.088Z,99.90
2019-03-29T08:45:53.080Z,99.90
2019-03-29T08:48:21.524Z,99.90
2019-03-29T08:50:49.956Z,99.90
2019-03-29T08:53:18.431Z,99.90
2019-03-29T08:55:46.892Z,99.90
2019-03-29T08:58:15.297Z,99.90
2019-03-29T09:00:43.770Z,99.90
2019-03-29T09:03:12.211Z,99.90
2019-03-29T09:05:41.569Z,99.90
2019-03-29T09:08:09.987Z,99.90
2019-03-29T09:10:38.415Z,99.90
2019-03-29T09:13:06.872Z,99.90
2019-03-29T09:15:35.284Z,99.90
2019-03-29T09:18:03.720Z,99.90
2019-03-29T09:20:34.456Z,99.90
2019-03-29T09:23:02.301Z,99.90
2019-03-29T09:25:30.776Z,99.90
2019-03-29T09:27:59.232Z,99.90
2019-03-29T09:30:27.787Z,99.90
2019-03-29T09:32:56.292Z,99.90
2019-03-29T09:35:25.005Z,99.90
2019-03-29T09:37:56.404Z,99.90
2019-03-29T09:40:23.671Z,99.90
2019-03-29T09:43:06.175Z,99.90
2019-03-29T09:45:22.308Z,99.90
2019-03-29T09:47:50.731Z,99.90
2019-03-29T09:50:22.729Z,99.90
2019-03-29T09:52:51.407Z,99.90
2019-03-29T09:55:20.252Z,99.90
2019-03-29T09:57:48.779Z,99.90
2019-03-29T10:00:22.808Z,99.90
2019-03-29T10:02:47.868Z,99.90
2019-03-29T10:05:19.674Z,99.90
2019-03-29T10:07:46.477Z,99.90
2019-03-29T10:10:15.063Z,97.90
2019-03-29T10:12:44.172Z,96.50
2019-03-29T10:15:12.741Z,97.00
2019-03-29T10:17:41.317Z,95.40
2019-03-29T10:20:10.192Z,94.40
2019-03-29T10:22:38.640Z,97.50
2019-03-29T10:25:18.546Z,96.20
2019-03-29T10:27:37.555Z,96.90
2019-03-29T10:30:09.066Z,93.70
2019-03-29T10:32:37.547Z,94.90
2019-03-29T10:35:07.505Z,93.40
2019-03-29T10:37:35.938Z,92.60
2019-03-29T10:40:07.077Z,92.80
2019-03-29T10:42:35.513Z,92.50
2019-03-29T10:45:04.855Z,92.30
2019-03-29T10:47:43.125Z,89.00
2019-03-29T10:50:04.436Z,89.90
2019-03-29T10:52:33.179Z,90.70
2019-03-29T10:55:01.574Z,91.60
2019-03-29T10:57:29.996Z,92.50
2019-03-29T10:59:58.430Z,91.50
2019-03-29T11:02:26.836Z,90.90
2019-03-29T11:04:55.254Z,89.40
2019-03-29T11:07:23.663Z,88.40
2019-03-29T11:09:52.094Z,90.80
2019-03-29T11:12:20.545Z,90.10
2019-03-29T11:14:48.957Z,90.90
2019-03-29T11:17:17.368Z,92.00
2019-03-29T11:19:45.788Z,93.40
2019-03-29T11:22:14.215Z,91.70
2019-03-29T11:24:42.637Z,90.90
2019-03-29T11:27:11.060Z,88.30
2019-03-29T11:29:39.512Z,88.40
2019-03-29T11:32:08.109Z,88.40
2019-03-29T11:34:36.563Z,89.10
2019-03-29T11:37:04.987Z,91.00
2019-03-29T11:39:33.456Z,90.00
2019-03-29T11:42:03.462Z,90.30
2019-03-29T11:47:24.320Z,92.40
2019-03-29T11:50:34.304Z,91.00
2019-03-29T11:53:15.792Z,92.30
2019-03-29T11:55:46.160Z,93.10
2019-03-29T11:58:15.931Z,91.90
2019-03-29T12:00:46.786Z,91.30
2019-03-29T12:03:16.030Z,91.60
2019-03-29T12:05:46.699Z,91.70
2019-03-29T12:08:16.422Z,91.90
2019-03-29T12:10:46.370Z,91.60
2019-03-29T12:13:15.115Z,91.50
2019-03-29T12:15:47.374Z,91.10
2019-03-29T12:18:16.058Z,92.20
2019-03-29T12:20:46.072Z,91.80
2019-03-29T12:23:15.648Z,91.60
2019-03-29T12:25:54.773Z,91.70
2019-03-29T12:28:23.327Z,91.50
2019-03-29T12:30:51.763Z,92.10
2019-03-29T12:33:20.198Z,91.90
2019-03-29T12:35:48.650Z,91.60
2019-03-29T12:38:17.952Z,91.50
2019-03-29T12:40:49.801Z,90.80
2019-03-29T12:43:18.281Z,91.50
2019-03-29T12:45:47.567Z,90.40
2019-03-29T12:48:16.359Z,90.50
2019-03-29T12:50:51.903Z,90.70
2019-03-29T12:53:20.374Z,91.20
2019-03-29T12:55:48.884Z,90.90
2019-03-29T12:58:17.376Z,90.50
2019-03-29T13:00:46.144Z,90.90
2019-03-29T13:03:16.353Z,90.40
2019-03-29T13:05:46.924Z,86.50
2019-03-29T13:08:15.617Z,90.10
2019-03-29T13:10:58.068Z,86.60
2019-03-29T13:13:39.155Z,85.00
2019-03-29T13:16:14.414Z,82.10
2019-03-29T13:18:45.844Z,83.00
2019-03-29T13:21:14.857Z,83.90
2019-03-29T13:23:45.818Z,83.30
2019-03-29T13:26:16.164Z,83.50
2019-03-29T13:28:45.628Z,83.40
2019-03-29T13:31:14.834Z,82.80
2019-03-29T13:33:44.726Z,80.70
2019-03-29T13:36:14.284Z,82.30
2019-03-29T13:38:44.859Z,84.20
2019-03-29T13:41:15.354Z,82.50
2019-03-29T13:43:46.574Z,82.60
2019-03-29T13:46:16.605Z,82.20
2019-03-29T13:48:46.411Z,83.50
2019-03-29T13:54:09.486Z,81.60
2019-03-29T13:56:37.913Z,82.80
2019-03-29T13:59:06.332Z,79.30
2019-03-29T14:01:34.770Z,80.00
2019-03-29T14:04:03.235Z,82.90
2019-03-29T14:06:31.685Z,80.90
2019-03-29T14:09:00.087Z,79.70
2019-03-29T14:11:28.535Z,83.50
2019-03-29T14:13:56.968Z,80.60
2019-03-29T14:16:25.393Z,80.30
2019-03-29T14:18:53.832Z,81.40
2019-03-29T14:21:22.266Z,79.90
2019-03-29T14:23:50.698Z,79.40
2019-03-29T14:26:19.125Z,79.10
2019-03-29T14:28:47.549Z,82.30
2019-03-29T14:31:15.974Z,80.10
2019-03-29T14:33:44.391Z,79.90
2019-03-29T14:36:12.879Z,81.80
2019-03-29T14:38:41.280Z,79.60
2019-03-29T14:41:09.701Z,79.80
2019-03-29T14:43:38.133Z,79.30
2019-03-29T14:46:06.538Z,80.90
2019-03-29T14:48:35.187Z,79.50
2019-03-29T14:51:03.652Z,80.20
2019-03-29T14:53:32.124Z,79.90
2019-03-29T14:56:00.525Z,82.40
2019-03-29T14:58:28.976Z,78.70
2019-03-29T15:00:57.402Z,76.40
2019-03-29T15:03:25.846Z,76.90
2019-03-29T15:05:54.241Z,76.50
2019-03-29T15:08:22.838Z,77.60
2019-03-29T15:10:51.275Z,76.40
2019-03-29T15:13:19.714Z,78.30
2019-03-29T15:15:48.208Z,78.80
2019-03-29T15:18:16.630Z,77.50
2019-03-29T15:20:53.120Z,79.50
2019-03-29T15:23:15.188Z,78.10
2019-03-29T15:25:43.630Z,79.10
2019-03-29T15:28:12.074Z,78.40
2019-03-29T15:30:40.558Z,79.20
2019-03-29T15:33:09.235Z,78.20
2019-03-29T15:35:37.662Z,78.40
2019-03-29T15:38:06.153Z,78.80
2019-03-29T15:40:34.615Z,79.50
2019-03-29T15:43:03.038Z,80.10
2019-03-29T15:45:31.453Z,79.00
2019-03-29T15:47:59.864Z,79.60
2019-03-29T15:50:28.272Z,78.60
2019-03-29T15:52:56.763Z,80.20
2019-03-29T15:55:25.227Z,80.00
2019-03-29T15:57:54.693Z,79.40
2019-03-29T16:00:23.101Z,79.40
2019-03-29T16:02:51.513Z,80.90
2019-03-29T16:05:19.954Z,82.40
2019-03-29T16:07:48.364Z,81.00
2019-03-29T16:10:16.793Z,80.40
2019-03-29T16:12:45.213Z,80.90
2019-03-29T16:15:13.634Z,82.10
2019-03-29T16:17:42.094Z,80.20
2019-03-29T16:20:10.647Z,80.10
2019-03-29T16:22:39.086Z,79.60
2019-03-29T16:25:07.784Z,81.00
2019-03-29T16:27:36.191Z,81.50
2019-03-29T16:30:06.756Z,81.30
2019-03-29T16:32:35.923Z,81.30
2019-03-29T16:35:07.880Z,81.80
2019-03-29T16:37:36.274Z,82.10
2019-03-29T16:40:06.345Z,81.70
2019-03-29T16:42:34.786Z,81.40
2019-03-29T16:45:04.005Z,81.40
2019-03-29T16:47:32.652Z,83.10
2019-03-29T16:50:01.086Z,82.00
2019-03-29T16:52:29.505Z,81.70
2019-03-29T16:54:57.934Z,81.20
2019-03-29T16:57:26.360Z,81.30
2019-03-29T16:59:54.802Z,81.70
2019-03-29T17:02:23.314Z,80.80
2019-03-29T17:04:51.789Z,80.60
2019-03-29T17:07:20.259Z,80.70
2019-03-29T17:09:48.855Z,80.70
2019-03-29T17:12:17.269Z,82.20
2019-03-29T17:14:45.698Z,82.00
2019-03-29T17:17:14.112Z,82.80
2019-03-29T17:19:42.547Z,82.40
2019-03-29T17:22:11.113Z,82.30
2019-03-29T17:24:39.583Z,83.90
2019-03-29T17:27:07.994Z,82.90
2019-03-29T17:29:36.488Z,82.90
2019-03-29T17:32:04.965Z,83.60
2019-03-29T17:34:33.416Z,84.00
2019-03-29T17:37:01.857Z,84.20
2019-03-29T17:39:30.734Z,85.30
2019-03-29T17:41:59.174Z,86.00
2019-03-29T17:44:27.589Z,87.70
2019-03-29T17:46:56.041Z,88.00
2019-03-29T17:49:24.442Z,90.20
2019-03-29T17:51:52.879Z,90.40
2019-03-29T17:54:21.568Z,91.20
2019-03-29T17:56:49.987Z,92.30
2019-03-29T17:59:18.426Z,93.30
2019-03-29T18:01:47.202Z,94.70
2019-03-29T18:04:15.663Z,96.70
2019-03-29T18:06:46.902Z,98.10
2019-03-29T18:09:14.238Z,99.80
2019-03-29T18:12:11.224Z,99.90
2019-03-29T18:14:40.299Z,99.90
2019-03-29T18:17:28.108Z,99.90
2019-03-29T18:19:56.552Z,99.90
2019-03-29T18:22:25.135Z,99.90
2019-03-29T18:24:53.632Z,99.90
2019-03-29T18:27:22.119Z,99.90
2019-03-29T18:29:50.533Z,99.90
2019-03-29T18:32:19.994Z,99.90
2019-03-29T18:34:49.013Z,99.90
2019-03-29T18:37:17.605Z,99.90
2019-03-29T18:39:46.271Z,99.90
2019-03-29T18:42:14.710Z,99.90
2019-03-29T18:44:43.142Z,99.90
2019-03-29T18:47:11.585Z,99.90
2019-03-29T18:49:40.000Z,99.90
2019-03-29T18:52:08.442Z,99.90
2019-03-29T18:54:36.879Z,99.90
2019-03-29T18:57:05.329Z,99.90
2019-03-29T18:59:33.713Z,99.90
2019-03-29T19:02:02.178Z,99.90
2019-03-29T19:04:30.629Z,99.90
2019-03-29T19:06:59.090Z,99.90
2019-03-29T19:09:27.533Z,99.90
2019-03-29T19:11:55.964Z,99.90
2019-03-29T19:14:24.565Z,99.90
2019-03-29T19:16:58.993Z,99.90
2019-03-29T19:19:23.102Z,99.90
2019-03-29T19:21:51.553Z,99.90
2019-03-29T19:24:20.013Z,99.90
2019-03-29T19:26:48.444Z,99.90
2019-03-29T19:29:16.936Z,99.90
2019-03-29T19:31:46.119Z,99.90
2019-03-29T19:34:14.848Z,99.90
2019-03-29T19:36:43.381Z,99.90
2019-03-29T19:39:11.891Z,99.90
2019-03-29T19:41:40.367Z,99.90
2019-03-29T19:44:08.821Z,99.90
2019-03-29T19:46:37.245Z,99.90
2019-03-29T19:49:05.723Z,99.90
2019-03-29T19:51:34.162Z,99.90
2019-03-29T19:54:07.665Z,99.90
2019-03-29T19:56:32.800Z,99.90
2019-03-29T19:59:01.850Z,99.90
2019-03-29T20:01:30.306Z,99.90
2019-03-29T20:03:58.825Z,99.90
2019-03-29T20:06:27.263Z,99.90
2019-03-29T20:08:55.682Z,99.90
2019-03-29T20:11:24.111Z,99.90
2019-03-29T20:13:52.658Z,99.90
2019-03-29T20:16:21.094Z,99.90
2019-03-29T20:18:49.527Z,99.90
2019-03-29T20:21:17.970Z,99.90
2019-03-29T20:23:46.438Z,99.90
2019-03-29T20:26:14.953Z,99.90
2019-03-29T20:28:43.387Z,99.90
2019-03-29T20:31:11.881Z,99.90
2019-03-29T20:33:40.299Z,99.90
2019-03-29T20:36:08.754Z,99.90
2019-03-29T20:38:37.206Z,99.90
2019-03-29T20:41:05.627Z,99.90
2019-03-29T20:43:34.085Z,99.90
2019-03-29T20:46:02.552Z,99.90
2019-03-29T20:48:30.973Z,99.90
2019-03-29T20:50:59.438Z,99.90
2019-03-29T20:53:27.854Z,99.90
2019-03-29T20:55:58.362Z,99.90
2019-03-29T20:58:26.493Z,99.90
2019-03-29T21:00:54.925Z,99.90
2019-03-29T21:03:23.379Z,99.90
2019-03-29T21:05:51.843Z,99.90
2019-03-29T21:08:20.271Z,99.90
2019-03-29T21:10:55.428Z,99.90
2019-03-29T21:13:18.882Z,99.90
2019-03-29T21:15:47.374Z,99.90
2019-03-29T21:18:17.413Z,99.90
2019-03-29T21:20:46.268Z,99.90
2019-03-29T21:23:14.694Z,99.90
2019-03-29T21:25:43.164Z,99.90
2019-03-29T21:28:11.617Z,99.90
2019-03-29T21:30:40.052Z,99.90
2019-03-29T21:33:08.470Z,99.90
2019-03-29T21:35:36.913Z,99.90
2019-03-29T21:38:05.330Z,99.90
2019-03-29T21:40:33.874Z,99.90
2019-03-29T21:43:02.422Z,99.90
2019-03-29T21:45:30.883Z,99.90
2019-03-29T21:48:08.901Z,99.90
2019-03-29T21:50:29.493Z,99.90
2019-03-29T21:52:57.962Z,99.90
2019-03-29T21:55:26.395Z,99.90
2019-03-29T21:57:54.897Z,99.90
2019-03-29T22:00:23.294Z,99.90
2019-03-29T22:02:51.725Z,99.90
2019-03-29T22:05:20.403Z,99.90
2019-03-29T22:07:48.837Z,99.90
2019-03-29T22:10:17.331Z,99.90
2019-03-29T22:12:45.781Z,99.90
2019-03-29T22:15:14.382Z,99.90
2019-03-29T22:17:44.408Z,99.90
2019-03-29T22:20:12.909Z,99.90
2019-03-29T22:22:41.673Z,99.90
2019-03-29T22:25:10.355Z,99.90
2019-03-29T22:27:38.778Z,99.90
2019-03-29T22:30:09.628Z,99.90
2019-03-29T22:32:38.146Z,99.90
2019-03-29T22:35:09.375Z,99.90
2019-03-29T22:37:37.906Z,99.90
2019-03-29T22:40:08.379Z,99.90
2019-03-29T22:42:36.921Z,99.90
2019-03-29T22:45:09.079Z,99.90
2019-03-29T22:47:37.653Z,99.90
2019-03-29T22:50:07.224Z,99.90
2019-03-29T22:52:35.646Z,99.90
2019-03-29T22:55:06.954Z,99.90
2019-03-29T22:57:35.503Z,99.90
2019-03-29T23:00:09.627Z,99.90
2019-03-29T23:02:38.075Z,99.90
2019-03-29T23:05:07.884Z,99.90
2019-03-29T23:07:36.316Z,99.90
2019-03-29T23:10:06.343Z,99.90
2019-03-29T23:12:34.839Z,99.90
2019-03-29T23:15:03.435Z,99.90
2019-03-29T23:17:31.890Z,99.90
2019-03-29T23:20:00.363Z,99.90
2019-03-29T23:22:28.893Z,99.90
2019-03-29T23:24:59.992Z,99.90
2019-03-29T23:27:28.442Z,99.90
2019-03-29T23:29:56.905Z,99.90
2019-03-29T23:32:25.343Z,99.90
2019-03-29T23:34:53.791Z,99.90
2019-03-29T23:37:22.222Z,99.90
2019-03-29T23:39:50.681Z,99.90
2019-03-29T23:42:19.132Z,99.90
2019-03-29T23:44:47.592Z,99.90
2019-03-29T23:47:16.026Z,99.90
2019-03-29T23:49:44.499Z,99.90
2019-03-29T23:52:12.952Z,99.90
2019-03-29T23:54:41.396Z,99.90
2019-03-29T23:57:09.834Z,99.90
2019-03-29T23:59:38.300Z,99.90
